sensor_id;sensor_type;location;lat;lon;timestamp;temperature;humidity
20246;DHT22;10281;54.406;18.556;2023-04-24T00:01:12;12.80;99.90
20246;DHT22;10281;54.406;18.556;2023-04-24T00:03:39;12.80;99.90
20246;DHT22;10281;54.406;18.556;2023-04-24T00:06:06;12.80;99.90
20246;DHT22;10281;54.406;18.556;2023-04-24T00:08:35;12.70;99.90
20246;DHT22;10281;54.406;18.556;2023-04-24T00:11:02;12.70;99.90
20246;DHT22;10281;54.406;18.556;2023-04-24T00:13:29;12.70;99.90
20246;DHT22;10281;54.406;18.556;2023-04-24T00:15:56;12.60;99.90
20246;DHT22;10281;54.406;18.556;2023-04-24T00:18:23;12.60;99.90
20246;DHT22;10281;54.406;18.556;2023-04-24T00:20:49;12.60;99.90
20246;DHT22;10281;54.406;18.556;2023-04-24T00:23:16;12.60;99.90
20246;DHT22;10281;54.406;18.556;2023-04-24T00:25:42;12.50;99.90
20246;DHT22;10281;54.406;18.556;2023-04-24T00:28:09;12.50;99.90
20246;DHT22;10281;54.406;18.556;2023-04-24T00:30:36;12.40;99.90
20246;DHT22;10281;54.406;18.556;2023-04-24T00:33:02;12.40;99.90
20246;DHT22;10281;54.406;18.556;2023-04-24T00:35:29;12.40;99.90
20246;DHT22;10281;54.406;18.556;2023-04-24T00:37:56;12.40;99.90
20246;DHT22;10281;54.406;18.556;2023-04-24T00:40:22;12.40;99.90
20246;DHT22;10281;54.406;18.556;2023-04-24T00:42:49;12.30;99.90
20246;DHT22;10281;54.406;18.556;2023-04-24T00:45:16;12.30;99.90
20246;DHT22;10281;54.406;18.556;2023-04-24T00:47:43;12.20;99.90
20246;DHT22;10281;54.406;18.556;2023-04-24T00:50:10;12.20;99.90
20246;DHT22;10281;54.406;18.556;2023-04-24T00:52:38;12.20;99.90
20246;DHT22;10281;54.406;18.556;2023-04-24T00:55:07;12.10;99.90
20246;DHT22;10281;54.406;18.556;2023-04-24T00:57:34;12.00;99.90
20246;DHT22;10281;54.406;18.556;2023-04-24T01:00:01;12.00;99.90
20246;DHT22;10281;54.406;18.556;2023-04-24T01:02:29;12.00;99.90
20246;DHT22;10281;54.406;18.556;2023-04-24T01:04:56;12.00;99.90
20246;DHT22;10281;54.406;18.556;2023-04-24T01:07:23;12.00;99.90
20246;DHT22;10281;54.406;18.556;2023-04-24T01:09:50;12.00;99.90
20246;DHT22;10281;54.406;18.556;2023-04-24T01:12:18;12.00;99.90
20246;DHT22;10281;54.406;18.556;2023-04-24T01:14:45;12.00;99.90
20246;DHT22;10281;54.406;18.556;2023-04-24T01:17:12;11.90;99.90
20246;DHT22;10281;54.406;18.556;2023-04-24T01:19:39;12.00;99.90
20246;DHT22;10281;54.406;18.556;2023-04-24T01:22:11;11.90;99.90
20246;DHT22;10281;54.406;18.556;2023-04-24T01:24:38;12.00;99.90
20246;DHT22;10281;54.406;18.556;2023-04-24T01:27:05;12.00;99.90
20246;DHT22;10281;54.406;18.556;2023-04-24T01:29:33;12.00;99.90
20246;DHT22;10281;54.406;18.556;2023-04-24T01:32:00;12.00;99.90
20246;DHT22;10281;54.406;18.556;2023-04-24T01:34:27;12.00;99.90
20246;DHT22;10281;54.406;18.556;2023-04-24T01:36:54;12.00;99.90
20246;DHT22;10281;54.406;18.556;2023-04-24T01:39:22;12.00;99.90
20246;DHT22;10281;54.406;18.556;2023-04-24T01:41:52;12.00;99.90
20246;DHT22;10281;54.406;18.556;2023-04-24T01:44:19;11.90;99.90
20246;DHT22;10281;54.406;18.556;2023-04-24T01:46:46;11.90;99.90
20246;DHT22;10281;54.406;18.556;2023-04-24T01:49:13;11.90;99.90
20246;DHT22;10281;54.406;18.556;2023-04-24T01:51:39;11.90;99.90
20246;DHT22;10281;54.406;18.556;2023-04-24T01:54:06;11.80;99.90
20246;DHT22;10281;54.406;18.556;2023-04-24T01:56:34;11.80;99.90
20246;DHT22;10281;54.406;18.556;2023-04-24T01:59:03;11.80;99.90
20246;DHT22;10281;54.406;18.556;2023-04-24T02:01:35;11.80;99.90
20246;DHT22;10281;54.406;18.556;2023-04-24T02:04:08;11.80;99.90
20246;DHT22;10281;54.406;18.556;2023-04-24T02:06:35;11.80;99.90
20246;DHT22;10281;54.406;18.556;2023-04-24T02:09:02;11.70;99.90
20246;DHT22;10281;54.406;18.556;2023-04-24T02:11:29;11.70;99.90
20246;DHT22;10281;54.406;18.556;2023-04-24T02:13:56;11.80;99.90
20246;DHT22;10281;54.406;18.556;2023-04-24T02:16:23;11.80;99.90
20246;DHT22;10281;54.406;18.556;2023-04-24T02:18:49;11.80;99.90
20246;DHT22;10281;54.406;18.556;2023-04-24T02:21:16;11.80;99.90
20246;DHT22;10281;54.406;18.556;2023-04-24T02:23:42;11.80;99.90
20246;DHT22;10281;54.406;18.556;2023-04-24T02:26:10;11.80;99.90
20246;DHT22;10281;54.406;18.556;2023-04-24T02:28:36;11.70;99.90
20246;DHT22;10281;54.406;18.556;2023-04-24T02:31:03;11.80;99.90
20246;DHT22;10281;54.406;18.556;2023-04-24T02:33:31;11.80;99.90
20246;DHT22;10281;54.406;18.556;2023-04-24T02:35:57;11.80;99.90
20246;DHT22;10281;54.406;18.556;2023-04-24T02:38:24;11.70;99.90
20246;DHT22;10281;54.406;18.556;2023-04-24T02:40:50;11.70;99.90
20246;DHT22;10281;54.406;18.556;2023-04-24T02:43:17;11.60;99.90
20246;DHT22;10281;54.406;18.556;2023-04-24T02:45:44;11.50;99.90
20246;DHT22;10281;54.406;18.556;2023-04-24T02:48:11;11.50;99.90
20246;DHT22;10281;54.406;18.556;2023-04-24T02:50:38;11.50;99.90
20246;DHT22;10281;54.406;18.556;2023-04-24T02:53:05;11.50;99.90
20246;DHT22;10281;54.406;18.556;2023-04-24T02:55:31;11.40;99.90
20246;DHT22;10281;54.406;18.556;2023-04-24T02:57:58;11.40;99.90
20246;DHT22;10281;54.406;18.556;2023-04-24T03:00:24;11.40;99.90
20246;DHT22;10281;54.406;18.556;2023-04-24T03:02:51;11.30;99.90
20246;DHT22;10281;54.406;18.556;2023-04-24T03:05:18;11.30;99.90
20246;DHT22;10281;54.406;18.556;2023-04-24T03:07:45;11.30;99.90
20246;DHT22;10281;54.406;18.556;2023-04-24T03:10:12;11.20;99.90
20246;DHT22;10281;54.406;18.556;2023-04-24T03:12:38;11.20;99.90
20246;DHT22;10281;54.406;18.556;2023-04-24T03:15:06;11.20;99.90
20246;DHT22;10281;54.406;18.556;2023-04-24T03:17:33;11.20;99.90
20246;DHT22;10281;54.406;18.556;2023-04-24T03:19:59;11.30;99.90
20246;DHT22;10281;54.406;18.556;2023-04-24T03:22:26;11.30;99.90
20246;DHT22;10281;54.406;18.556;2023-04-24T03:24:52;11.20;99.90
20246;DHT22;10281;54.406;18.556;2023-04-24T03:27:20;11.10;99.90
20246;DHT22;10281;54.406;18.556;2023-04-24T03:29:47;11.10;99.90
20246;DHT22;10281;54.406;18.556;2023-04-24T03:32:14;11.10;99.90
20246;DHT22;10281;54.406;18.556;2023-04-24T03:34:40;11.10;99.90
20246;DHT22;10281;54.406;18.556;2023-04-24T03:37:07;11.10;99.90
20246;DHT22;10281;54.406;18.556;2023-04-24T03:39:34;11.10;99.90
20246;DHT22;10281;54.406;18.556;2023-04-24T03:42:00;11.10;99.90
20246;DHT22;10281;54.406;18.556;2023-04-24T03:44:27;11.00;99.90
20246;DHT22;10281;54.406;18.556;2023-04-24T03:46:53;10.90;99.90
20246;DHT22;10281;54.406;18.556;2023-04-24T03:49:20;10.90;99.90
20246;DHT22;10281;54.406;18.556;2023-04-24T03:51:47;10.90;99.90
20246;DHT22;10281;54.406;18.556;2023-04-24T03:54:14;10.90;99.90
20246;DHT22;10281;54.406;18.556;2023-04-24T03:56:41;10.90;99.90
20246;DHT22;10281;54.406;18.556;2023-04-24T03:59:07;10.90;99.90
20246;DHT22;10281;54.406;18.556;2023-04-24T04:01:34;10.80;99.90
20246;DHT22;10281;54.406;18.556;2023-04-24T04:04:04;10.70;99.90
20246;DHT22;10281;54.406;18.556;2023-04-24T04:06:30;10.80;99.90
20246;DHT22;10281;54.406;18.556;2023-04-24T04:08:58;10.80;99.90
20246;DHT22;10281;54.406;18.556;2023-04-24T04:11:25;10.90;99.90
20246;DHT22;10281;54.406;18.556;2023-04-24T04:13:52;11.00;99.90
20246;DHT22;10281;54.406;18.556;2023-04-24T04:16:18;11.00;99.90
20246;DHT22;10281;54.406;18.556;2023-04-24T04:18:45;11.00;99.90
20246;DHT22;10281;54.406;18.556;2023-04-24T04:21:11;11.00;99.90
20246;DHT22;10281;54.406;18.556;2023-04-24T04:23:38;11.10;99.90
20246;DHT22;10281;54.406;18.556;2023-04-24T04:26:06;11.00;99.90
20246;DHT22;10281;54.406;18.556;2023-04-24T04:28:33;11.00;99.90
20246;DHT22;10281;54.406;18.556;2023-04-24T04:31:00;11.00;99.90
20246;DHT22;10281;54.406;18.556;2023-04-24T04:33:27;11.10;99.90
20246;DHT22;10281;54.406;18.556;2023-04-24T04:35:54;11.10;99.90
20246;DHT22;10281;54.406;18.556;2023-04-24T04:38:22;11.10;99.90
20246;DHT22;10281;54.406;18.556;2023-04-24T04:40:49;11.10;99.90
20246;DHT22;10281;54.406;18.556;2023-04-24T04:43:16;11.10;99.90
20246;DHT22;10281;54.406;18.556;2023-04-24T04:45:42;11.20;99.90
20246;DHT22;10281;54.406;18.556;2023-04-24T04:48:09;11.10;99.90
20246;DHT22;10281;54.406;18.556;2023-04-24T04:50:38;11.10;99.90
20246;DHT22;10281;54.406;18.556;2023-04-24T04:53:05;11.10;99.90
20246;DHT22;10281;54.406;18.556;2023-04-24T04:55:32;11.20;99.90
20246;DHT22;10281;54.406;18.556;2023-04-24T04:57:59;11.20;99.90
20246;DHT22;10281;54.406;18.556;2023-04-24T05:00:26;11.20;99.90
20246;DHT22;10281;54.406;18.556;2023-04-24T05:02:54;11.30;99.90
20246;DHT22;10281;54.406;18.556;2023-04-24T05:05:21;11.30;99.90
20246;DHT22;10281;54.406;18.556;2023-04-24T05:07:48;11.40;99.90
20246;DHT22;10281;54.406;18.556;2023-04-24T05:10:15;11.40;99.90
20246;DHT22;10281;54.406;18.556;2023-04-24T05:12:41;11.40;99.90
20246;DHT22;10281;54.406;18.556;2023-04-24T05:15:09;11.30;99.90
20246;DHT22;10281;54.406;18.556;2023-04-24T05:17:36;11.30;99.90
20246;DHT22;10281;54.406;18.556;2023-04-24T05:20:04;11.40;99.90
20246;DHT22;10281;54.406;18.556;2023-04-24T05:22:32;11.30;99.90
20246;DHT22;10281;54.406;18.556;2023-04-24T05:24:58;11.20;99.90
20246;DHT22;10281;54.406;18.556;2023-04-24T05:27:25;11.30;99.90
20246;DHT22;10281;54.406;18.556;2023-04-24T05:29:51;11.20;99.90
20246;DHT22;10281;54.406;18.556;2023-04-24T05:32:18;11.20;99.90
20246;DHT22;10281;54.406;18.556;2023-04-24T05:34:45;11.30;99.90
20246;DHT22;10281;54.406;18.556;2023-04-24T05:37:12;11.30;99.90
20246;DHT22;10281;54.406;18.556;2023-04-24T05:39:39;11.30;99.90
20246;DHT22;10281;54.406;18.556;2023-04-24T05:42:06;11.40;99.90
20246;DHT22;10281;54.406;18.556;2023-04-24T05:44:33;11.30;99.90
20246;DHT22;10281;54.406;18.556;2023-04-24T05:47:00;11.20;99.90
20246;DHT22;10281;54.406;18.556;2023-04-24T05:49:27;11.30;99.90
20246;DHT22;10281;54.406;18.556;2023-04-24T05:51:54;11.30;99.90
20246;DHT22;10281;54.406;18.556;2023-04-24T05:54:20;11.40;99.90
20246;DHT22;10281;54.406;18.556;2023-04-24T05:56:48;11.40;99.90
20246;DHT22;10281;54.406;18.556;2023-04-24T05:59:15;11.40;99.90
20246;DHT22;10281;54.406;18.556;2023-04-24T06:01:42;11.40;99.90
20246;DHT22;10281;54.406;18.556;2023-04-24T06:04:08;11.40;99.90
20246;DHT22;10281;54.406;18.556;2023-04-24T06:06:35;11.40;99.90
20246;DHT22;10281;54.406;18.556;2023-04-24T06:09:02;11.50;99.90
20246;DHT22;10281;54.406;18.556;2023-04-24T06:11:29;11.60;99.90
20246;DHT22;10281;54.406;18.556;2023-04-24T06:13:56;11.60;99.90
20246;DHT22;10281;54.406;18.556;2023-04-24T06:16:22;11.60;99.90
20246;DHT22;10281;54.406;18.556;2023-04-24T06:18:49;11.70;99.90
20246;DHT22;10281;54.406;18.556;2023-04-24T06:21:16;11.70;99.90
20246;DHT22;10281;54.406;18.556;2023-04-24T06:23:43;11.70;99.90
20246;DHT22;10281;54.406;18.556;2023-04-24T06:26:12;11.70;99.90
20246;DHT22;10281;54.406;18.556;2023-04-24T06:28:38;11.70;99.90
20246;DHT22;10281;54.406;18.556;2023-04-24T06:31:05;11.70;99.90
20246;DHT22;10281;54.406;18.556;2023-04-24T06:33:32;11.80;99.90
20246;DHT22;10281;54.406;18.556;2023-04-24T06:35:58;11.80;99.90
20246;DHT22;10281;54.406;18.556;2023-04-24T06:38:25;11.90;99.90
20246;DHT22;10281;54.406;18.556;2023-04-24T06:40:52;11.90;99.90
20246;DHT22;10281;54.406;18.556;2023-04-24T06:43:18;12.00;99.90
20246;DHT22;10281;54.406;18.556;2023-04-24T06:45:46;12.00;99.90
20246;DHT22;10281;54.406;18.556;2023-04-24T06:48:13;12.10;99.90
20246;DHT22;10281;54.406;18.556;2023-04-24T06:50:39;12.20;99.90
20246;DHT22;10281;54.406;18.556;2023-04-24T06:53:06;12.20;99.90
20246;DHT22;10281;54.406;18.556;2023-04-24T06:55:32;12.30;99.90
20246;DHT22;10281;54.406;18.556;2023-04-24T06:57:59;12.20;99.90
20246;DHT22;10281;54.406;18.556;2023-04-24T07:00:26;12.20;99.90
20246;DHT22;10281;54.406;18.556;2023-04-24T07:02:52;12.20;99.90
20246;DHT22;10281;54.406;18.556;2023-04-24T07:05:19;12.20;99.90
20246;DHT22;10281;54.406;18.556;2023-04-24T07:07:47;12.20;99.90
20246;DHT22;10281;54.406;18.556;2023-04-24T07:10:15;12.10;99.90
20246;DHT22;10281;54.406;18.556;2023-04-24T07:12:42;12.20;99.90
20246;DHT22;10281;54.406;18.556;2023-04-24T07:15:09;12.20;99.90
20246;DHT22;10281;54.406;18.556;2023-04-24T07:17:36;12.20;99.90
20246;DHT22;10281;54.406;18.556;2023-04-24T07:20:05;12.20;99.90
20246;DHT22;10281;54.406;18.556;2023-04-24T07:22:33;12.30;99.90
20246;DHT22;10281;54.406;18.556;2023-04-24T07:25:00;12.20;99.90
20246;DHT22;10281;54.406;18.556;2023-04-24T07:27:27;12.30;99.90
20246;DHT22;10281;54.406;18.556;2023-04-24T07:29:53;12.30;99.90
20246;DHT22;10281;54.406;18.556;2023-04-24T07:32:20;12.30;99.90
20246;DHT22;10281;54.406;18.556;2023-04-24T07:34:47;12.30;99.90
20246;DHT22;10281;54.406;18.556;2023-04-24T07:37:13;12.30;99.90
20246;DHT22;10281;54.406;18.556;2023-04-24T07:39:40;12.30;99.90
20246;DHT22;10281;54.406;18.556;2023-04-24T07:42:07;12.30;99.90
20246;DHT22;10281;54.406;18.556;2023-04-24T07:44:34;12.30;99.90
20246;DHT22;10281;54.406;18.556;2023-04-24T07:47:01;12.20;99.90
20246;DHT22;10281;54.406;18.556;2023-04-24T07:49:28;12.10;99.90
20246;DHT22;10281;54.406;18.556;2023-04-24T07:51:55;12.00;99.90
20246;DHT22;10281;54.406;18.556;2023-04-24T07:54:22;12.00;99.90
20246;DHT22;10281;54.406;18.556;2023-04-24T07:56:49;12.10;99.90
20246;DHT22;10281;54.406;18.556;2023-04-24T07:59:16;12.20;99.90
20246;DHT22;10281;54.406;18.556;2023-04-24T08:01:42;12.20;99.90
20246;DHT22;10281;54.406;18.556;2023-04-24T08:04:09;12.20;99.90
20246;DHT22;10281;54.406;18.556;2023-04-24T08:06:35;12.20;99.90
20246;DHT22;10281;54.406;18.556;2023-04-24T08:09:03;12.20;99.90
20246;DHT22;10281;54.406;18.556;2023-04-24T08:11:29;12.20;99.90
20246;DHT22;10281;54.406;18.556;2023-04-24T08:13:56;12.30;99.90
20246;DHT22;10281;54.406;18.556;2023-04-24T08:16:23;12.30;99.90
20246;DHT22;10281;54.406;18.556;2023-04-24T08:18:50;12.30;99.90
20246;DHT22;10281;54.406;18.556;2023-04-24T08:21:17;12.40;99.90
20246;DHT22;10281;54.406;18.556;2023-04-24T08:23:45;12.50;99.90
20246;DHT22;10281;54.406;18.556;2023-04-24T08:26:13;12.50;99.90
20246;DHT22;10281;54.406;18.556;2023-04-24T08:28:39;12.50;99.90
20246;DHT22;10281;54.406;18.556;2023-04-24T08:31:06;12.60;99.90
20246;DHT22;10281;54.406;18.556;2023-04-24T08:33:32;12.60;99.90
20246;DHT22;10281;54.406;18.556;2023-04-24T08:36:03;12.70;99.90
20246;DHT22;10281;54.406;18.556;2023-04-24T08:38:31;12.70;99.90
20246;DHT22;10281;54.406;18.556;2023-04-24T08:40:59;12.70;99.90
20246;DHT22;10281;54.406;18.556;2023-04-24T08:43:27;12.80;99.90
20246;DHT22;10281;54.406;18.556;2023-04-24T08:45:56;12.90;99.90
20246;DHT22;10281;54.406;18.556;2023-04-24T08:48:23;12.90;99.90
20246;DHT22;10281;54.406;18.556;2023-04-24T08:50:51;12.90;99.90
20246;DHT22;10281;54.406;18.556;2023-04-24T08:53:18;12.90;99.90
20246;DHT22;10281;54.406;18.556;2023-04-24T08:55:47;12.90;99.90
20246;DHT22;10281;54.406;18.556;2023-04-24T08:58:16;13.00;99.90
20246;DHT22;10281;54.406;18.556;2023-04-24T09:00:43;13.10;99.90
20246;DHT22;10281;54.406;18.556;2023-04-24T09:03:15;13.20;99.90
20246;DHT22;10281;54.406;18.556;2023-04-24T09:05:44;13.20;99.90
20246;DHT22;10281;54.406;18.556;2023-04-24T09:08:14;13.30;99.90
20246;DHT22;10281;54.406;18.556;2023-04-24T09:10:42;13.30;99.90
20246;DHT22;10281;54.406;18.556;2023-04-24T09:13:09;13.30;99.90
20246;DHT22;10281;54.406;18.556;2023-04-24T09:15:37;13.30;99.90
20246;DHT22;10281;54.406;18.556;2023-04-24T09:18:05;13.40;99.90
20246;DHT22;10281;54.406;18.556;2023-04-24T09:20:32;13.40;99.90
20246;DHT22;10281;54.406;18.556;2023-04-24T09:23:01;13.50;99.90
20246;DHT22;10281;54.406;18.556;2023-04-24T09:25:33;13.60;99.90
20246;DHT22;10281;54.406;18.556;2023-04-24T09:28:02;13.70;99.90
20246;DHT22;10281;54.406;18.556;2023-04-24T09:30:29;13.80;99.90
20246;DHT22;10281;54.406;18.556;2023-04-24T09:33:10;13.80;99.90
20246;DHT22;10281;54.406;18.556;2023-04-24T09:38:12;13.70;99.90
20246;DHT22;10281;54.406;18.556;2023-04-24T09:40:39;13.70;99.90
20246;DHT22;10281;54.406;18.556;2023-04-24T09:43:10;13.70;99.90
20246;DHT22;10281;54.406;18.556;2023-04-24T09:45:38;13.80;99.90
20246;DHT22;10281;54.406;18.556;2023-04-24T09:48:08;13.90;99.90
20246;DHT22;10281;54.406;18.556;2023-04-24T09:50:36;13.90;99.90
20246;DHT22;10281;54.406;18.556;2023-04-24T09:53:04;14.00;99.90
20246;DHT22;10281;54.406;18.556;2023-04-24T09:55:31;14.10;99.90
20246;DHT22;10281;54.406;18.556;2023-04-24T09:57:59;14.10;99.90
20246;DHT22;10281;54.406;18.556;2023-04-24T10:00:29;14.10;99.90
20246;DHT22;10281;54.406;18.556;2023-04-24T10:03:01;14.20;99.90
20246;DHT22;10281;54.406;18.556;2023-04-24T10:05:31;14.20;99.90
20246;DHT22;10281;54.406;18.556;2023-04-24T10:08:01;14.20;99.90
20246;DHT22;10281;54.406;18.556;2023-04-24T10:10:30;14.30;99.90
20246;DHT22;10281;54.406;18.556;2023-04-24T10:12:57;14.40;99.90
20246;DHT22;10281;54.406;18.556;2023-04-24T10:15:24;14.50;99.90
20246;DHT22;10281;54.406;18.556;2023-04-24T10:17:52;14.60;99.90
20246;DHT22;10281;54.406;18.556;2023-04-24T10:20:20;14.60;99.90
20246;DHT22;10281;54.406;18.556;2023-04-24T10:22:49;14.70;99.90
20246;DHT22;10281;54.406;18.556;2023-04-24T10:25:18;14.80;99.90
20246;DHT22;10281;54.406;18.556;2023-04-24T10:27:46;14.90;99.90
20246;DHT22;10281;54.406;18.556;2023-04-24T10:30:13;15.10;99.90
20246;DHT22;10281;54.406;18.556;2023-04-24T10:32:41;15.20;99.90
20246;DHT22;10281;54.406;18.556;2023-04-24T10:35:09;15.40;99.90
20246;DHT22;10281;54.406;18.556;2023-04-24T10:37:41;15.50;99.90
20246;DHT22;10281;54.406;18.556;2023-04-24T10:40:11;15.70;99.90
20246;DHT22;10281;54.406;18.556;2023-04-24T10:42:40;15.80;99.90
20246;DHT22;10281;54.406;18.556;2023-04-24T10:45:24;15.90;99.90
20246;DHT22;10281;54.406;18.556;2023-04-24T10:48:08;16.00;99.90
20246;DHT22;10281;54.406;18.556;2023-04-24T10:50:46;16.10;99.90
20246;DHT22;10281;54.406;18.556;2023-04-24T10:53:16;16.30;99.90
20246;DHT22;10281;54.406;18.556;2023-04-24T10:55:47;16.40;99.90
20246;DHT22;10281;54.406;18.556;2023-04-24T10:58:14;16.40;99.90
20246;DHT22;10281;54.406;18.556;2023-04-24T11:00:43;16.50;99.90
20246;DHT22;10281;54.406;18.556;2023-04-24T11:03:22;16.50;99.90
20246;DHT22;10281;54.406;18.556;2023-04-24T11:05:53;16.60;99.90
20246;DHT22;10281;54.406;18.556;2023-04-24T11:08:29;16.80;99.90
20246;DHT22;10281;54.406;18.556;2023-04-24T11:11:02;17.00;99.90
20246;DHT22;10281;54.406;18.556;2023-04-24T11:16:20;17.20;99.90
20246;DHT22;10281;54.406;18.556;2023-04-24T11:18:44;17.40;99.90
20246;DHT22;10281;54.406;18.556;2023-04-24T11:21:12;17.40;99.90
20246;DHT22;10281;54.406;18.556;2023-04-24T11:23:40;17.50;99.90
20246;DHT22;10281;54.406;18.556;2023-04-24T11:26:12;17.70;99.90
20246;DHT22;10281;54.406;18.556;2023-04-24T11:28:44;17.80;99.90
20246;DHT22;10281;54.406;18.556;2023-04-24T11:33:49;18.00;99.90
20246;DHT22;10281;54.406;18.556;2023-04-24T11:36:16;18.10;99.90
20246;DHT22;10281;54.406;18.556;2023-04-24T11:38:43;18.10;99.90
20246;DHT22;10281;54.406;18.556;2023-04-24T11:41:10;18.10;99.90
20246;DHT22;10281;54.406;18.556;2023-04-24T11:43:37;18.10;99.90
20246;DHT22;10281;54.406;18.556;2023-04-24T11:46:04;18.20;99.90
20246;DHT22;10281;54.406;18.556;2023-04-24T11:48:34;18.20;99.90
20246;DHT22;10281;54.406;18.556;2023-04-24T11:51:03;18.30;99.90
20246;DHT22;10281;54.406;18.556;2023-04-24T11:53:30;18.40;99.90
20246;DHT22;10281;54.406;18.556;2023-04-24T11:55:57;18.50;99.90
20246;DHT22;10281;54.406;18.556;2023-04-24T11:58:25;18.50;99.90
20246;DHT22;10281;54.406;18.556;2023-04-24T12:00:57;18.50;99.90
20246;DHT22;10281;54.406;18.556;2023-04-24T12:03:25;18.60;99.90
20246;DHT22;10281;54.406;18.556;2023-04-24T12:05:52;18.60;99.90
20246;DHT22;10281;54.406;18.556;2023-04-24T12:08:27;18.70;99.90
20246;DHT22;10281;54.406;18.556;2023-04-24T12:10:54;18.80;99.90
20246;DHT22;10281;54.406;18.556;2023-04-24T12:13:21;18.90;99.90
20246;DHT22;10281;54.406;18.556;2023-04-24T12:15:48;19.00;99.90
20246;DHT22;10281;54.406;18.556;2023-04-24T12:18:16;19.10;99.90
20246;DHT22;10281;54.406;18.556;2023-04-24T12:20:43;19.10;99.90
20246;DHT22;10281;54.406;18.556;2023-04-24T12:23:10;19.20;99.90
20246;DHT22;10281;54.406;18.556;2023-04-24T12:25:38;19.20;99.90
20246;DHT22;10281;54.406;18.556;2023-04-24T12:28:11;19.20;99.90
20246;DHT22;10281;54.406;18.556;2023-04-24T12:30:44;19.30;99.90
20246;DHT22;10281;54.406;18.556;2023-04-24T12:33:10;19.40;99.90
20246;DHT22;10281;54.406;18.556;2023-04-24T12:35:40;19.30;99.90
20246;DHT22;10281;54.406;18.556;2023-04-24T12:38:10;19.40;99.90
20246;DHT22;10281;54.406;18.556;2023-04-24T12:40:39;19.40;99.90
20246;DHT22;10281;54.406;18.556;2023-04-24T12:43:14;19.40;99.90
20246;DHT22;10281;54.406;18.556;2023-04-24T12:45:41;19.40;99.90
20246;DHT22;10281;54.406;18.556;2023-04-24T12:48:08;19.50;99.90
20246;DHT22;10281;54.406;18.556;2023-04-24T12:50:35;19.60;99.90
20246;DHT22;10281;54.406;18.556;2023-04-24T12:53:02;19.70;99.90
20246;DHT22;10281;54.406;18.556;2023-04-24T12:55:28;19.70;99.90
20246;DHT22;10281;54.406;18.556;2023-04-24T12:57:55;19.70;99.90
20246;DHT22;10281;54.406;18.556;2023-04-24T13:00:22;19.70;99.90
20246;DHT22;10281;54.406;18.556;2023-04-24T13:02:49;19.70;99.90
20246;DHT22;10281;54.406;18.556;2023-04-24T13:05:16;19.70;99.90
20246;DHT22;10281;54.406;18.556;2023-04-24T13:07:43;19.70;99.90
20246;DHT22;10281;54.406;18.556;2023-04-24T13:10:10;19.70;99.90
20246;DHT22;10281;54.406;18.556;2023-04-24T13:12:37;19.70;99.90
20246;DHT22;10281;54.406;18.556;2023-04-24T13:15:05;19.70;99.90
20246;DHT22;10281;54.406;18.556;2023-04-24T13:17:32;19.70;99.90
20246;DHT22;10281;54.406;18.556;2023-04-24T13:19:59;19.80;99.90
20246;DHT22;10281;54.406;18.556;2023-04-24T13:22:25;19.80;99.90
20246;DHT22;10281;54.406;18.556;2023-04-24T13:24:53;19.80;99.90
20246;DHT22;10281;54.406;18.556;2023-04-24T13:27:19;19.90;99.90
20246;DHT22;10281;54.406;18.556;2023-04-24T13:29:46;19.90;99.90
20246;DHT22;10281;54.406;18.556;2023-04-24T13:32:13;19.80;99.90
20246;DHT22;10281;54.406;18.556;2023-04-24T13:34:40;19.90;99.90
20246;DHT22;10281;54.406;18.556;2023-04-24T13:37:06;19.90;99.90
20246;DHT22;10281;54.406;18.556;2023-04-24T13:39:33;19.90;99.90
20246;DHT22;10281;54.406;18.556;2023-04-24T13:42:01;19.90;99.90
20246;DHT22;10281;54.406;18.556;2023-04-24T13:44:27;20.00;99.70
20246;DHT22;10281;54.406;18.556;2023-04-24T13:46:55;20.00;99.70
20246;DHT22;10281;54.406;18.556;2023-04-24T13:49:23;20.10;99.90
20246;DHT22;10281;54.406;18.556;2023-04-24T13:51:51;20.10;99.90
20246;DHT22;10281;54.406;18.556;2023-04-24T13:54:18;20.30;98.70
20246;DHT22;10281;54.406;18.556;2023-04-24T13:56:45;20.30;97.20
20246;DHT22;10281;54.406;18.556;2023-04-24T13:59:13;20.40;98.10
20246;DHT22;10281;54.406;18.556;2023-04-24T14:01:39;20.50;98.40
20246;DHT22;10281;54.406;18.556;2023-04-24T14:04:06;20.60;98.20
20246;DHT22;10281;54.406;18.556;2023-04-24T14:06:32;20.60;98.40
20246;DHT22;10281;54.406;18.556;2023-04-24T14:08:59;20.60;97.90
20246;DHT22;10281;54.406;18.556;2023-04-24T14:11:26;20.50;98.20
20246;DHT22;10281;54.406;18.556;2023-04-24T14:13:54;20.40;97.10
20246;DHT22;10281;54.406;18.556;2023-04-24T14:16:22;20.40;97.70
20246;DHT22;10281;54.406;18.556;2023-04-24T14:18:49;20.40;97.40
20246;DHT22;10281;54.406;18.556;2023-04-24T14:21:16;20.40;98.00
20246;DHT22;10281;54.406;18.556;2023-04-24T14:23:42;20.40;98.20
20246;DHT22;10281;54.406;18.556;2023-04-24T14:26:10;20.40;97.80
20246;DHT22;10281;54.406;18.556;2023-04-24T14:28:36;20.30;98.80
20246;DHT22;10281;54.406;18.556;2023-04-24T14:31:03;20.30;97.10
20246;DHT22;10281;54.406;18.556;2023-04-24T14:33:29;20.30;97.60
20246;DHT22;10281;54.406;18.556;2023-04-24T14:35:57;20.30;98.70
20246;DHT22;10281;54.406;18.556;2023-04-24T14:38:23;20.20;99.00
20246;DHT22;10281;54.406;18.556;2023-04-24T14:40:50;20.20;99.10
20246;DHT22;10281;54.406;18.556;2023-04-24T14:43:17;20.10;98.80
20246;DHT22;10281;54.406;18.556;2023-04-24T14:45:43;20.10;98.70
20246;DHT22;10281;54.406;18.556;2023-04-24T14:48:10;20.00;97.80
20246;DHT22;10281;54.406;18.556;2023-04-24T14:50:37;20.00;98.80
20246;DHT22;10281;54.406;18.556;2023-04-24T14:53:03;19.90;98.20
20246;DHT22;10281;54.406;18.556;2023-04-24T14:55:31;19.90;98.30
20246;DHT22;10281;54.406;18.556;2023-04-24T14:57:59;19.90;97.20
20246;DHT22;10281;54.406;18.556;2023-04-24T15:00:25;19.80;98.30
20246;DHT22;10281;54.406;18.556;2023-04-24T15:02:52;19.90;98.20
20246;DHT22;10281;54.406;18.556;2023-04-24T15:05:19;19.90;98.70
20246;DHT22;10281;54.406;18.556;2023-04-24T15:07:45;19.90;98.60
20246;DHT22;10281;54.406;18.556;2023-04-24T15:10:12;19.90;99.00
20246;DHT22;10281;54.406;18.556;2023-04-24T15:12:38;19.90;98.80
20246;DHT22;10281;54.406;18.556;2023-04-24T15:15:06;19.80;99.20
20246;DHT22;10281;54.406;18.556;2023-04-24T15:17:34;19.80;99.90
20246;DHT22;10281;54.406;18.556;2023-04-24T15:20:01;19.70;99.90
20246;DHT22;10281;54.406;18.556;2023-04-24T15:22:28;19.70;99.90
20246;DHT22;10281;54.406;18.556;2023-04-24T15:24:55;19.60;99.90